KFCM/FCM METAR and TAF weather

Enter ICAO airport designator
Station Type Date Time Source
KFCM METAR 2019/08/22 19:53 UTC NOAA

KFCM 221953Z 34009KT 10SM SCT060 23/09 A3008 RMK AO2 SLP183 T02280094


Station Type Date Time Source
KFCM Decoded METAR 2019/08/22 19:53 UTC NOAA

Station name not available
Aug 22, 2019 - 03:53 PM EDT / 2019.08.22 1953 UTC
Wind: from the NNW (340 degrees) at 10 MPH (9 KT):0
Visibility: 10 mile(s):0
Sky conditions: partly cloudy
Temperature: 73.0 F (22.8 C)
Dew Point: 48.9 F (9.4 C)
Relative Humidity: 42%
Pressure (altimeter): 30.08 in. Hg (1018 hPa)
ob: KFCM 221953Z 34009KT 10SM SCT060 23/09 A3008 RMK AO2 SLP183 T02280094
cycle: 20

Station Type Date Time Source
KFCM TAF 2018/02/05 20:59 UTC NOAA

TAF
AMD KFCM 051959Z 0520/0618 27007KT 6SM -SHSN BKN020 OVC050
TEMPO 0520/0522 SCT020 BKN050
FM052200 27007KT P6SM FEW020 BKN100
FM060100 31007KT P6SM FEW200
FM061000 VRB03KT P6SM FEW250
AMD NOT SKED

Example: see airport list